This is the latest recevied weather packets stored in our database for station/object KF0JJO. If no packets are shown the sender has not sent any weather packets the latest 1 day(s).
| Time | Temp. | Humidity | Pressure | Rain* | Wind** | Luminosity | Snow |
|---|---|---|---|---|---|---|---|
| 1778012197 | 11.67° C | 33% | 1042.1 hPa | 0 mm | 0 m/s | 281 W/m² | - |
| 1778011895 | 11.11° C | 32% | 1042.1 hPa | 0 mm | 0.45 m/s, 16° | 779 W/m² | - |
| 1778011592 | 11.11° C | 34% | 1042.1 hPa | 0 mm | 0.45 m/s, 29° | 374 W/m² | - |
| 1778011289 | 11.11° C | 34% | 1042.1 hPa | 0 mm | 0 m/s | 274 W/m² | - |
| 1778010985 | 11.67° C | 32% | 1042.3 hPa | 0 mm | 0 m/s | 298 W/m² | - |
| 1778010683 | 12.78° C | 30% | 1042.2 hPa | 0 mm | 0.45 m/s, 21° | 241 W/m² | - |
| 1778010380 | 12.22° C | 31% | 1042 hPa | 0 mm | 0.45 m/s, 26° | 511 W/m² | - |
| 1778010076 | 11.67° C | 33% | 1042 hPa | 0 mm | 0.45 m/s, 34° | 1078 W/m² | - |
| 1778009773 | 11.67° C | 31% | 1042.1 hPa | 0 mm | 0 m/s | 336 W/m² | - |
| 1778009470 | 11.11° C | 33% | 1042.2 hPa | 0 mm | 0 m/s | 435 W/m² | - |
| 1778009169 | 10.56° C | 33% | 1042.3 hPa | 0 mm | 0.45 m/s, 7° | 365 W/m² | - |
| 1778008865 | 10.56° C | 33% | 1042.1 hPa | 0 mm | 0 m/s | 266 W/m² | - |
| 1778008564 | 10.56° C | 33% | 1042.2 hPa | 0 mm | 0.45 m/s, 30° | 296 W/m² | - |
| 1778008261 | 10.56° C | 33% | 1042.1 hPa | 0 mm | 0.45 m/s, 36° | 274 W/m² | - |
| 1778007955 | 11.11° C | 32% | 1042.1 hPa | 0 mm | 0 m/s | 224 W/m² | - |
| 1778007652 | 11.11° C | 34% | 1042.2 hPa | 0 mm | 0 m/s | 285 W/m² | - |
| 1778007349 | 11.11° C | 32% | 1042.3 hPa | 0 mm | 0 m/s | 366 W/m² | - |
| 1778007045 | 10.56° C | 33% | 1042.4 hPa | 0 mm | 0.45 m/s, 30° | 477 W/m² | - |
| 1778006742 | 10.56° C | 33% | 1042.2 hPa | 0 mm | 0.45 m/s, 40° | 911 W/m² | - |
| 1778006439 | 11.11° C | 32% | 1042.2 hPa | 0 mm | 0 m/s | 223 W/m² | - |
| 1778006135 | 11.67° C | 31% | 1042.1 hPa | 0 mm | 0.45 m/s, 26° | 422 W/m² | - |
| 1778005833 | 11.11° C | 32% | 1042.3 hPa | 0 mm | 0 m/s | 761 W/m² | - |
| 1778005529 | 10° C | 34% | 1042.3 hPa | 0 mm | 0 m/s | 778 W/m² | - |
| 1778005226 | 10.56° C | 32% | 1042.2 hPa | 0 mm | 0.45 m/s, 31° | 255 W/m² | - |
| 1778004922 | 10.56° C | 33% | 1042.2 hPa | 0 mm | 0 m/s | 309 W/m² | - |
* Rain latest hour (hover to see other rain measurements)
** Current wind speed in m/s (hover to see current wind gust speed)